Time;durP1;ratioP1;P1;durP2;ratioP2;P2;SDS_P1;SDS_P2;PMS_P1;PMS_P2;Temp;Humidity;BMP_temperature;BMP_pressure;BME280_temperature;BME280_humidity;BME280_pressure;Samples;Min_cycle;Max_cycle;Signal;HPM_P1;HPM_P2
2022/04/01 00:01:26;;;;;;;7.70;4.10;;;4.40;99.90;;;5.14;64.47;-19901.88;5012464;28;20230;-59
2022/04/01 00:03:55;;;;;;;5.27;3.80;;;4.30;99.90;;;5.03;64.18;-19897.94;5012812;28;20227;-59
2022/04/01 00:06:23;;;;;;;7.50;3.90;;;4.30;99.90;;;5.09;62.23;-19900.16;5012258;28;20236;-59
2022/04/01 00:08:50;;;;;;;7.63;4.20;;;4.20;99.90;;;5.03;60.54;-19897.94;5012243;28;20260;-61
2022/04/01 00:11:18;;;;;;;6.87;3.87;;;4.20;99.90;;;5.04;60.78;-19898.47;5012215;28;20225;-59
2022/04/01 00:13:48;;;;;;;8.50;3.70;;;4.20;99.90;;;5.27;60.32;-19906.31;5012627;28;20294;-60
2022/04/01 00:16:16;;;;;;;5.87;3.90;;;4.20;99.90;;;5.11;61.01;-19900.69;5013126;28;20306;-59
2022/04/01 00:18:44;;;;;;;6.67;3.97;;;4.20;99.90;;;4.96;61.88;-19895.91;5012262;28;20721;-61
2022/04/01 00:21:12;;;;;;;4.97;4.20;;;4.10;99.90;;;5.03;62.65;-19898.13;5011895;28;20305;-60
2022/04/01 00:23:40;;;;;;;6.57;3.90;;;4.10;99.90;;;5.13;62.50;-19901.38;5012257;28;20313;-59
2022/04/01 00:26:09;;;;;;;5.43;4.00;;;4.20;99.90;;;5.10;62.89;-19900.34;5001559;28;20219;-60
2022/04/01 00:28:38;;;;;;;10.33;4.30;;;4.20;99.90;;;4.90;63.17;-19893.69;4993467;28;20731;-60
2022/04/01 00:31:09;;;;;;;9.30;4.37;;;4.10;99.90;;;4.98;62.66;-19896.59;4992949;28;20311;-60
2022/04/01 00:33:37;;;;;;;5.63;3.97;;;4.10;99.90;;;4.90;62.05;-19893.84;4992695;28;20305;-59
2022/04/01 00:36:05;;;;;;;7.27;4.13;;;4.10;99.90;;;4.97;61.44;-19896.22;4992167;28;20235;-61
2022/04/01 00:38:33;;;;;;;6.17;4.17;;;4.10;99.90;;;4.92;61.29;-19894.34;4992510;28;20294;-59
2022/04/01 00:41:01;;;;;;;6.83;3.90;;;4.10;99.90;;;4.78;62.32;-19889.56;4992605;28;20325;-59
2022/04/01 00:43:34;;;;;;;6.63;4.10;;;4.00;99.90;;;4.76;62.21;-19888.88;4997628;28;20310;-60
2022/04/01 00:46:03;;;;;;;5.97;4.13;;;4.00;99.90;;;4.76;62.48;-19889.06;5013205;28;20313;-59
2022/04/01 00:48:32;;;;;;;7.47;4.40;;;4.00;99.90;;;4.66;63.02;-19885.47;5012068;28;20248;-61
2022/04/01 00:51:00;;;;;;;5.30;4.30;;;3.90;99.90;;;4.85;62.33;-19891.97;5011907;28;20238;-59
2022/04/01 00:53:30;;;;;;;10.00;4.33;;;4.00;99.90;;;4.96;63.33;-19895.72;5011750;28;20250;-59
2022/04/01 00:55:58;;;;;;;6.27;4.10;;;4.00;99.90;;;4.89;63.01;-19893.31;5012178;28;20421;-60
2022/04/01 00:58:28;;;;;;;8.67;5.03;;;4.00;99.90;;;4.79;64.20;-19890.09;5012826;28;20203;-60
2022/04/01 01:00:56;;;;;;;9.70;5.60;;;4.00;99.90;;;4.82;64.11;-19891.09;5011734;28;20234;-60
2022/04/01 01:03:24;;;;;;;8.07;4.60;;;4.00;99.90;;;4.75;64.45;-19888.53;5011795;28;20253;-60
2022/04/01 01:05:54;;;;;;;7.23;4.60;;;4.00;99.90;;;4.81;65.67;-19890.59;5011473;28;20312;-59
2022/04/01 01:08:22;;;;;;;6.70;4.40;;;3.90;99.90;;;4.90;64.20;-19893.84;5011586;28;20311;-59
2022/04/01 01:10:50;;;;;;;8.20;4.67;;;4.00;99.90;;;4.83;64.90;-19891.28;5011803;28;20227;-59
2022/04/01 01:13:18;;;;;;;8.53;4.70;;;4.00;99.90;;;4.94;65.13;-19895.22;5012024;28;20230;-59
2022/04/01 01:15:46;;;;;;;5.67;4.40;;;4.00;99.90;;;4.87;64.99;-19892.66;5011291;28;20744;-59
2022/04/01 01:18:17;;;;;;;5.97;4.17;;;4.00;99.90;;;4.94;64.89;-19895.22;5011285;28;20283;-59
2022/04/01 01:20:45;;;;;;;8.67;4.47;;;4.00;99.90;;;4.76;65.15;-19889.06;5011166;28;20235;-59
2022/04/01 01:23:14;;;;;;;6.50;4.40;;;4.00;99.90;;;4.70;65.98;-19887.00;5011149;28;20238;-61
2022/04/01 01:25:45;;;;;;;6.40;4.50;;;3.90;99.90;;;4.76;65.97;-19889.06;5004346;28;20305;-60
2022/04/01 01:28:13;;;;;;;7.97;5.00;;;3.90;99.90;;;4.87;64.12;-19892.66;4992174;28;20637;-59
2022/04/01 01:30:41;;;;;;;8.20;4.73;;;3.90;99.90;;;4.80;64.46;-19890.41;4991786;28;20226;-59
2022/04/01 01:33:11;;;;;;;9.47;4.63;;;4.00;99.90;;;4.80;64.47;-19890.41;4991666;28;20296;-59
2022/04/01 01:35:39;;;;;;;8.07;4.40;;;4.00;99.90;;;4.91;63.34;-19894.19;4991362;28;20668;-60
2022/04/01 01:38:08;;;;;;;7.40;4.07;;;4.00;99.90;;;4.91;63.71;-19894.19;4991309;28;20223;-60
2022/04/01 01:40:37;;;;;;;8.53;4.30;;;4.00;99.90;;;4.89;63.06;-19893.31;4992342;28;20214;-59
2022/04/01 01:43:06;;;;;;;5.77;4.27;;;4.00;99.90;;;4.88;63.40;-19893.00;4991767;28;20311;-59
2022/04/01 01:45:35;;;;;;;6.80;4.40;;;4.00;99.90;;;4.86;63.01;-19892.47;5010897;28;20804;-59
2022/04/01 01:48:03;;;;;;;6.30;4.60;;;4.00;99.90;;;4.65;62.79;-19885.13;5011141;28;20316;-60
2022/04/01 01:56:04;;;;;;;7.80;4.37;;;3.90;99.90;;;4.69;62.94;-19886.50;5011140;28;20223;-60
2022/04/01 01:58:34;;;;;;;6.23;4.27;;;3.90;99.90;;;4.80;62.47;-19890.41;5011679;28;20308;-59
2022/04/01 02:01:02;;;;;;;6.50;4.33;;;3.90;99.90;;;4.68;62.30;-19886.31;5010801;28;20250;-59
2022/04/01 02:03:30;;;;;;;6.57;3.90;;;3.90;99.90;;;4.67;62.14;-19885.97;5010583;28;20293;-60
2022/04/01 02:05:58;;;;;;;5.13;3.70;;;3.90;99.90;;;4.73;61.88;-19888.03;5010612;28;20223;-61
2022/04/01 02:08:26;;;;;;;6.50;3.80;;;3.90;99.90;;;4.63;61.22;-19884.44;5010698;28;20249;-59
2022/04/01 02:10:54;;;;;;;6.60;4.10;;;3.90;99.90;;;4.53;61.52;-19881.19;5011060;28;20207;-60
2022/04/01 02:13:22;;;;;;;6.17;3.73;;;3.80;99.90;;;4.50;60.15;-19880.00;5011510;28;20302;-59
2022/04/01 02:15:51;;;;;;;6.90;3.90;;;3.80;99.90;;;4.61;59.29;-19883.75;5010688;28;20305;-58
2022/04/01 02:18:20;;;;;;;7.47;4.00;;;3.80;99.90;;;4.62;57.90;-19884.28;5010594;28;20655;-59
2022/04/01 02:20:50;;;;;;;6.73;3.63;;;3.80;99.90;;;4.50;57.46;-19880.16;5010589;28;20228;-59
2022/04/01 02:23:18;;;;;;;7.30;3.70;;;3.80;99.90;;;4.70;57.30;-19887.00;5010431;28;20239;-59
2022/04/01 02:25:46;;;;;;;6.63;3.63;;;3.80;99.90;;;4.57;56.90;-19882.38;5012577;28;20656;-59
2022/04/01 02:28:14;;;;;;;7.57;3.80;;;3.80;99.90;;;4.54;56.18;-19881.38;5014916;28;20206;-61
2022/04/01 02:30:42;;;;;;;7.53;3.83;;;3.70;99.90;;;4.71;55.62;-19887.34;5014660;28;20734;-61
2022/04/01 02:33:11;;;;;;;5.90;3.90;;;3.80;99.90;;;4.64;55.64;-19884.78;5014432;28;20601;-60
2022/04/01 02:35:39;;;;;;;6.40;4.10;;;3.80;99.90;;;4.61;55.88;-19883.75;5014039;28;20335;-58
2022/04/01 02:38:07;;;;;;;9.37;3.93;;;3.70;99.90;;;4.52;55.04;-19880.69;5014162;28;20226;-60
2022/04/01 02:40:36;;;;;;;7.13;3.87;;;3.70;99.90;;;4.49;55.18;-19879.81;5014767;28;20204;-60
2022/04/01 02:43:04;;;;;;;6.43;4.27;;;3.70;99.90;;;4.59;54.69;-19883.06;5014422;28;20312;-58
2022/04/01 02:45:32;;;;;;;7.77;3.90;;;3.70;99.90;;;4.57;54.21;-19882.38;5014326;28;20230;-59
2022/04/01 02:48:00;;;;;;;4.87;3.33;;;3.70;99.90;;;4.52;54.86;-19880.69;5014095;28;20249;-60
2022/04/01 02:50:30;;;;;;;5.70;3.63;;;3.70;99.90;;;4.42;54.07;-19877.25;5013882;28;20713;-59
2022/04/01 02:52:58;;;;;;;7.90;3.90;;;3.60;99.90;;;4.40;53.75;-19876.75;5013901;28;20199;-60
2022/04/01 02:55:26;;;;;;;6.90;3.53;;;3.60;99.90;;;4.45;53.93;-19878.47;5015721;28;20243;-60
2022/04/01 02:57:54;;;;;;;7.00;4.10;;;3.60;99.90;;;4.32;54.36;-19874.03;5013856;28;20315;-60
2022/04/01 03:00:27;;;;;;;5.83;3.57;;;3.60;99.90;;;4.28;53.91;-19872.66;5013701;28;20237;-61
2022/04/01 03:02:55;;;;;;;6.33;4.00;;;3.60;99.90;;;4.29;53.91;-19872.81;5013683;28;20243;-59
2022/04/01 03:05:23;;;;;;;5.50;3.80;;;3.60;99.90;;;4.41;53.51;-19877.09;5013784;28;20307;-60
2022/04/01 03:07:52;;;;;;;7.07;3.73;;;3.60;99.90;;;4.38;53.53;-19875.91;5013525;28;20257;-60
2022/04/01 03:10:23;;;;;;;5.67;3.70;;;3.60;99.90;;;4.42;53.41;-19877.25;5014410;28;20221;-59
2022/04/01 03:12:51;;;;;;;4.97;3.50;;;3.60;99.90;;;4.35;53.84;-19875.03;5013502;28;20229;-59
2022/04/01 03:15:20;;;;;;;6.67;3.30;;;3.60;99.90;;;4.38;53.66;-19876.06;5013630;28;20257;-61
2022/04/01 03:17:48;;;;;;;4.53;3.37;;;3.60;99.90;;;4.42;53.00;-19877.25;5013622;28;20260;-58
2022/04/01 03:20:16;;;;;;;5.70;3.47;;;3.60;99.90;;;4.30;53.08;-19873.34;5013561;28;20267;-59
2022/04/01 03:22:45;;;;;;;5.27;3.53;;;3.50;99.90;;;4.37;53.18;-19875.72;5013496;28;20297;-59
2022/04/01 03:25:18;;;;;;;6.60;3.93;;;3.60;99.90;;;4.23;53.51;-19870.94;5013904;28;20428;-59
2022/04/01 03:27:47;;;;;;;6.90;3.50;;;3.50;99.90;;;4.23;53.90;-19870.94;5013560;28;20230;-58
2022/04/01 03:30:17;;;;;;;4.50;3.20;;;3.50;99.90;;;4.23;53.76;-19870.94;5013216;28;20293;-61
2022/04/01 03:32:46;;;;;;;5.20;3.20;;;3.40;99.90;;;4.31;53.30;-19873.66;5013359;28;20305;-58
2022/04/01 03:35:17;;;;;;;8.57;3.90;;;3.50;99.90;;;4.26;53.99;-19871.97;5013080;28;20329;-58
2022/04/01 03:37:47;;;;;;;4.07;3.23;;;3.50;99.90;;;4.35;53.35;-19875.03;5012111;28;20193;-59
2022/04/01 03:40:17;;;;;;;5.63;3.60;;;3.50;99.90;;;4.35;53.10;-19874.88;5013992;28;20202;-59
2022/04/01 03:42:47;;;;;;;7.10;3.40;;;3.50;99.90;;;4.29;53.24;-19873.00;5013110;28;20336;-58
2022/04/01 03:45:17;;;;;;;3.73;3.17;;;3.50;99.90;;;4.35;52.93;-19874.88;5012935;28;20238;-59
2022/04/01 03:47:56;;;;;;;5.93;3.53;;;3.50;99.90;;;4.38;52.76;-19875.91;5013183;28;20248;-59
2022/04/01 03:50:31;;;;;;;4.97;3.30;;;3.50;99.90;;;4.12;54.19;-19867.19;5012709;28;20230;-58
2022/04/01 03:53:05;;;;;;;5.27;3.57;;;3.40;99.90;;;4.23;53.94;-19870.78;5013040;28;20336;-59
2022/04/01 03:55:37;;;;;;;5.13;3.27;;;3.40;99.90;;;4.43;53.60;-19877.78;5013279;28;20244;-58
2022/04/01 03:58:09;;;;;;;7.43;4.07;;;3.50;99.90;;;4.38;53.52;-19876.06;5013286;28;20244;-60
2022/04/01 04:00:40;;;;;;;5.50;3.13;;;3.50;99.90;;;4.34;54.00;-19874.69;5012766;28;20348;-59
2022/04/01 04:03:11;;;;;;;6.70;3.70;;;3.50;99.90;;;4.34;53.86;-19874.53;5012905;28;20231;-58
2022/04/01 04:05:39;;;;;;;5.90;3.57;;;3.50;99.90;;;4.00;54.94;-19863.06;5011917;28;20671;-60
2022/04/01 04:08:11;;;;;;;5.73;3.70;;;3.40;99.90;;;4.19;54.25;-19869.56;5012766;28;20233;-60
2022/04/01 04:10:42;;;;;;;4.97;3.40;;;3.40;99.90;;;4.26;54.02;-19871.97;5012724;28;20245;-58
2022/04/01 04:13:12;;;;;;;4.30;3.30;;;3.40;99.90;;;4.08;54.37;-19865.81;5012929;28;20278;-60
2022/04/01 04:15:49;;;;;;;6.63;3.90;;;3.30;99.90;;;3.98;54.59;-19862.22;5012397;28;20260;-59
2022/04/01 04:18:20;;;;;;;5.20;3.70;;;3.30;99.90;;;4.17;54.61;-19868.88;5012479;28;20230;-59
2022/04/01 04:21:04;;;;;;;5.20;3.27;;;3.30;99.90;;;4.06;54.78;-19865.13;5011904;28;20373;-60
2022/04/01 04:23:43;;;;;;;4.77;3.50;;;3.30;99.90;;;4.13;54.51;-19867.53;5012483;28;20230;-59
2022/04/01 04:26:20;;;;;;;5.47;3.60;;;3.30;99.90;;;4.08;54.30;-19865.81;5012257;28;20307;-56
2022/04/01 04:28:56;;;;;;;5.97;3.30;;;3.30;99.90;;;4.03;54.76;-19864.09;5012316;28;20191;-60
2022/04/01 04:31:30;;;;;;;7.30;3.63;;;3.30;99.90;;;3.92;54.68;-19860.34;5012645;28;20225;-60
2022/04/01 04:34:04;;;;;;;6.53;3.90;;;3.20;99.90;;;3.90;55.61;-19859.50;5012009;28;20225;-60
2022/04/01 04:36:38;;;;;;;4.87;3.43;;;3.10;99.90;;;4.11;55.60;-19866.66;5011723;28;20717;-59
2022/04/01 04:39:12;;;;;;;5.70;3.50;;;3.20;99.90;;;4.05;55.32;-19864.63;5012042;28;20229;-57
2022/04/01 04:41:44;;;;;;;7.00;3.77;;;3.20;99.90;;;4.15;54.70;-19868.22;5011993;28;20230;-60
2022/04/01 04:44:13;;;;;;;6.83;3.60;;;3.30;99.90;;;4.14;55.24;-19867.88;5011828;28;20232;-60
2022/04/01 04:46:43;;;;;;;9.13;4.03;;;3.30;99.90;;;4.04;55.09;-19864.28;5012164;28;20295;-59
2022/04/01 04:49:13;;;;;;;5.00;3.53;;;3.20;99.90;;;3.99;55.21;-19862.72;5012090;28;20532;-59
2022/04/01 04:51:48;;;;;;;4.27;3.27;;;3.20;99.90;;;4.16;54.84;-19868.53;5011260;28;20308;-60
2022/04/01 04:54:19;;;;;;;4.97;3.47;;;3.20;99.90;;;4.07;54.82;-19865.47;5011707;28;20225;-59
2022/04/01 04:56:50;;;;;;;5.77;3.60;;;3.20;99.90;;;3.97;55.46;-19862.06;5011975;28;20825;-59
2022/04/01 04:59:20;;;;;;;5.07;3.10;;;3.20;99.90;;;4.09;55.37;-19866.16;5011694;28;20253;-60
2022/04/01 05:01:58;;;;;;;5.77;3.67;;;3.20;99.90;;;4.02;55.46;-19863.75;5011784;28;20651;-60
2022/04/01 05:05:02;;;;;;;7.30;3.33;;;3.20;99.90;;;4.05;55.55;-19864.78;5011417;28;20301;-59
2022/04/01 05:07:50;;;;;;;7.10;3.60;;;3.20;99.90;;;3.87;56.77;-19858.47;5012263;28;20517;-61
2022/04/01 05:10:27;;;;;;;6.93;3.40;;;3.20;99.90;;;3.94;57.49;-19860.84;5011797;28;20209;-61
2022/04/01 05:13:09;;;;;;;4.90;3.63;;;3.10;99.90;;;4.01;56.16;-19863.41;5011573;28;20260;-56
2022/04/01 05:15:39;;;;;;;5.10;3.43;;;3.10;99.90;;;3.95;56.34;-19861.19;5011467;28;20334;-60
2022/04/01 05:18:12;;;;;;;6.03;3.43;;;3.10;99.90;;;3.98;56.22;-19862.22;5011406;28;20481;-60
2022/04/01 05:20:53;;;;;;;7.40;3.70;;;3.20;99.90;;;4.06;55.60;-19865.13;5011134;28;20221;-60
2022/04/01 05:23:35;;;;;;;4.97;3.53;;;3.20;99.90;;;4.11;55.63;-19866.66;5011495;28;20217;-60
2022/04/01 05:26:13;;;;;;;5.60;3.57;;;3.20;99.90;;;4.02;54.86;-19863.59;5011139;28;20222;-60
2022/04/01 05:28:54;;;;;;;5.00;3.60;;;3.20;99.90;;;4.17;55.36;-19868.88;5011567;28;20270;-60
2022/04/01 05:31:34;;;;;;;6.50;3.60;;;3.20;99.90;;;4.11;55.59;-19866.66;5011686;28;20610;-60
2022/04/01 05:34:11;;;;;;;5.43;2.97;;;3.20;99.90;;;4.20;54.72;-19869.91;5011167;28;20630;-59
2022/04/01 05:36:44;;;;;;;6.73;4.13;;;3.30;99.90;;;4.11;54.90;-19866.84;5010686;28;20230;-60
2022/04/01 05:39:13;;;;;;;4.40;3.33;;;3.20;99.90;;;4.11;55.49;-19866.84;5011174;28;20233;-62
2022/04/01 05:41:42;;;;;;;4.77;3.40;;;3.20;99.90;;;4.08;54.32;-19865.63;5011192;28;20227;-59
2022/04/01 05:44:13;;;;;;;6.03;4.13;;;3.20;99.90;;;4.14;55.19;-19867.88;5011048;28;20232;-59
2022/04/01 05:46:41;;;;;;;5.57;3.37;;;3.20;99.90;;;4.25;54.52;-19871.44;5011091;28;20188;-59
2022/04/01 05:49:10;;;;;;;4.40;3.23;;;3.30;99.90;;;4.04;55.33;-19864.44;4996067;28;20530;-58
2022/04/01 05:51:40;;;;;;;8.07;4.40;;;3.20;99.90;;;4.02;55.29;-19863.75;4990868;28;20342;-57
2022/04/01 05:54:10;;;;;;;6.03;3.33;;;3.20;99.90;;;4.26;53.86;-19871.97;4991381;28;20258;-58
2022/04/01 05:56:42;;;;;;;6.17;3.70;;;3.30;99.90;;;4.21;54.24;-19870.25;4991347;28;20314;-61
2022/04/01 05:59:12;;;;;;;6.20;3.40;;;3.30;99.90;;;4.34;54.39;-19874.53;4995510;28;20220;-57
2022/04/01 06:01:45;;;;;;;5.97;3.37;;;3.30;99.90;;;4.24;54.96;-19871.13;5014367;28;20647;-58
2022/04/01 06:05:00;;;;;;;5.17;3.43;;;3.40;99.90;;;4.24;55.00;-19871.13;5015312;28;20192;-58
2022/04/01 06:07:37;;;;;;;5.80;4.90;;;3.30;99.90;;;4.28;54.22;-19872.66;5014893;28;20218;-59
2022/04/01 06:10:09;;;;;;;5.93;3.83;;;3.30;99.90;;;4.13;54.96;-19867.34;5015176;28;20204;-59
2022/04/01 06:12:51;;;;;;;5.63;3.60;;;3.30;99.90;;;4.06;55.26;-19865.13;5014570;28;20423;-58
2022/04/01 06:15:32;;;;;;;5.87;3.57;;;3.30;99.90;;;4.24;54.95;-19871.13;5014588;28;20305;-60
2022/04/01 06:18:15;;;;;;;5.83;3.50;;;3.30;99.90;;;4.07;55.85;-19865.31;5014469;28;20229;-60
2022/04/01 06:20:48;;;;;;;4.80;3.50;;;3.30;99.90;;;4.05;55.81;-19864.78;5013834;28;20265;-58
2022/04/01 06:23:29;;;;;;;4.53;3.47;;;3.20;99.90;;;4.18;56.64;-19869.22;5014545;28;20713;-58
2022/04/01 06:26:00;;;;;;;5.73;3.43;;;3.20;99.90;;;4.22;55.69;-19870.44;5014066;28;20206;-60
2022/04/01 06:28:35;;;;;;;7.40;4.07;;;3.30;99.90;;;4.20;55.27;-19869.91;5014620;28;20228;-58
2022/04/01 06:31:08;;;;;;;5.97;4.47;;;3.30;99.90;;;4.10;56.95;-19866.31;5014584;28;20251;-60
2022/04/01 06:33:50;;;;;;;11.07;3.80;;;3.20;99.90;;;4.17;55.79;-19868.88;5014277;28;20740;-60
2022/04/01 06:36:31;;;;;;;5.20;3.53;;;3.30;99.90;;;4.15;56.05;-19868.22;5014312;28;20683;-60
2022/04/01 06:39:05;;;;;;;5.67;3.97;;;3.20;99.90;;;4.04;57.22;-19864.28;5014484;28;20593;-59
2022/04/01 06:41:43;;;;;;;5.53;4.20;;;3.20;99.90;;;4.10;56.23;-19866.31;5014473;28;20246;-61
2022/04/01 06:44:11;;;;;;;5.13;3.67;;;3.20;99.90;;;4.25;56.36;-19871.63;5014433;28;20248;-59
2022/04/01 06:46:40;;;;;;;4.77;3.53;;;3.20;99.90;;;4.03;56.71;-19864.09;5014164;28;20706;-58
2022/04/01 06:49:09;;;;;;;4.53;3.77;;;3.20;99.90;;;3.91;56.71;-19860.00;5014633;28;20210;-57
2022/04/01 06:51:38;;;;;;;5.47;3.57;;;3.10;99.90;;;4.13;55.82;-19867.34;5014035;28;20257;-59
2022/04/01 06:54:07;;;;;;;5.97;3.77;;;3.10;99.90;;;3.67;57.02;-19851.78;5014112;28;20316;-59
2022/04/01 06:56:35;;;;;;;6.03;3.63;;;3.00;99.90;;;3.72;57.88;-19853.69;5014091;28;20664;-59
2022/04/01 06:59:05;;;;;;;6.03;3.87;;;2.90;99.90;;;3.61;57.57;-19849.91;5014119;28;20226;-60
2022/04/01 07:01:34;;;;;;;5.23;3.77;;;2.80;99.90;;;3.69;57.54;-19852.47;5014123;28;20748;-57
2022/04/01 07:04:04;;;;;;;5.40;3.83;;;2.80;99.90;;;3.65;57.40;-19851.28;5013734;28;20649;-59
2022/04/01 07:06:32;;;;;;;5.63;4.17;;;2.80;99.90;;;3.75;58.47;-19854.53;5013598;28;20234;-59
2022/04/01 07:09:01;;;;;;;5.50;3.90;;;2.80;99.90;;;3.90;57.55;-19859.66;5013894;28;20312;-58
2022/04/01 07:11:29;;;;;;;5.07;3.57;;;2.90;99.90;;;3.93;57.20;-19860.50;5013839;28;20237;-62
2022/04/01 07:13:57;;;;;;;4.13;3.67;;;3.00;99.90;;;3.88;56.81;-19858.81;5010889;28;20230;-59
2022/04/01 07:16:25;;;;;;;5.77;3.60;;;3.00;99.90;;;3.66;57.25;-19851.44;5008677;28;20291;-59
2022/04/01 07:18:53;;;;;;;4.60;3.60;;;2.90;99.90;;;3.76;57.48;-19854.88;5008283;28;20261;-58
2022/04/01 07:21:23;;;;;;;7.63;3.40;;;2.80;99.90;;;3.80;57.27;-19856.06;5013906;28;20230;-58
2022/04/01 07:23:52;;;;;;;4.63;4.00;;;2.90;99.90;;;3.66;57.35;-19851.44;5013735;28;20609;-57
2022/04/01 07:26:20;;;;;;;5.90;4.07;;;2.80;99.90;;;3.49;57.39;-19845.81;5001252;28;20349;-59
2022/04/01 07:28:48;;;;;;;7.67;4.13;;;2.70;99.90;;;3.61;56.95;-19849.91;4993894;28;20775;-57
2022/04/01 07:34:42;;;;;;;6.03;3.70;;;2.80;99.90;;;3.71;56.50;-19853.34;4993927;28;20231;-59
2022/04/01 07:37:12;;;;;;;6.13;3.83;;;2.90;99.90;;;3.66;57.00;-19851.44;4994094;28;20188;-57
2022/04/01 07:40:01;;;;;;;5.37;4.20;;;2.80;99.90;;;3.76;57.28;-19854.88;4994630;28;20240;-57
2022/04/01 07:42:30;;;;;;;5.80;4.23;;;2.80;99.90;;;3.96;56.45;-19861.72;5013299;28;20261;-58
2022/04/01 07:45:00;;;;;;;5.77;3.93;;;2.90;99.90;;;4.14;55.96;-19867.88;5013362;28;20324;-58
2022/04/01 07:47:28;;;;;;;4.77;4.13;;;3.00;99.90;;;3.83;56.94;-19857.09;5013074;28;20264;-59
2022/04/01 07:49:56;;;;;;;5.90;4.33;;;3.00;99.90;;;4.23;57.44;-19870.94;5012991;28;20202;-58
2022/04/01 07:52:26;;;;;;;5.57;3.60;;;3.10;99.90;;;4.52;56.95;-19880.69;5013562;28;20205;-57
2022/04/01 07:54:54;;;;;;;6.77;3.97;;;3.20;99.90;;;4.36;56.25;-19875.38;5012915;28;20225;-57
2022/04/01 07:57:22;;;;;;;6.80;3.93;;;3.30;99.90;;;4.45;56.28;-19878.47;5012899;28;20237;-58
2022/04/01 07:59:50;;;;;;;6.70;3.97;;;3.40;99.90;;;4.56;56.85;-19882.06;5013094;28;20233;-59
2022/04/01 08:02:19;;;;;;;5.97;4.20;;;3.40;99.90;;;4.32;55.95;-19874.03;5012979;28;20250;-59
2022/04/01 08:04:47;;;;;;;5.47;4.10;;;3.30;99.90;;;4.22;55.35;-19870.44;5012426;28;20586;-59
2022/04/01 08:07:16;;;;;;;5.07;4.07;;;3.30;99.90;;;4.31;56.24;-19873.66;5011763;28;20217;-55
2022/04/01 08:09:45;;;;;;;6.93;4.20;;;3.30;99.90;;;4.39;56.47;-19876.25;5012430;28;20223;-55
2022/04/01 08:12:13;;;;;;;5.97;3.90;;;3.40;99.90;;;4.08;57.00;-19865.81;5012786;28;20662;-53
2022/04/01 08:14:41;;;;;;;6.23;4.27;;;3.30;99.90;;;4.34;57.50;-19874.69;5012436;28;20305;-54
2022/04/01 08:17:12;;;;;;;4.73;3.90;;;3.20;99.90;;;4.35;57.50;-19874.88;5012395;28;20252;-52
2022/04/01 08:19:40;;;;;;;5.57;4.17;;;3.30;99.90;;;4.16;58.46;-19868.53;5011856;28;20207;-55
2022/04/01 08:22:10;;;;;;;4.43;3.97;;;3.30;99.90;;;4.49;57.91;-19879.66;4992203;28;20291;-56
2022/04/01 08:24:38;;;;;;;6.43;4.23;;;3.40;99.90;;;4.44;58.28;-19878.13;4990297;28;20240;-54
2022/04/01 08:27:08;;;;;;;6.07;4.10;;;3.40;99.90;;;4.58;58.03;-19882.91;5010513;28;20251;-58
2022/04/01 08:29:36;;;;;;;5.40;4.40;;;3.40;99.90;;;4.75;59.43;-19888.53;5011657;28;20303;-60
2022/04/01 08:32:06;;;;;;;6.73;4.47;;;3.50;99.90;;;4.56;59.50;-19882.22;5012814;28;20230;-60
2022/04/01 08:34:35;;;;;;;6.67;4.87;;;3.50;99.90;;;4.56;60.40;-19882.06;5012536;28;20260;-58
2022/04/01 08:37:03;;;;;;;5.33;4.37;;;3.50;99.90;;;4.28;60.99;-19872.66;5011344;28;20305;-59
2022/04/01 08:39:31;;;;;;;6.67;4.90;;;3.40;99.90;;;3.95;62.67;-19861.19;5011597;28;20273;-59
2022/04/01 08:42:00;;;;;;;8.03;5.20;;;3.10;99.90;;;4.37;61.72;-19875.56;5011768;28;20589;-58
2022/04/01 08:44:29;;;;;;;7.07;4.57;;;3.20;99.90;;;4.23;62.96;-19870.94;5011812;28;20223;-55
2022/04/01 08:46:57;;;;;;;6.33;4.77;;;3.20;99.90;;;3.92;64.83;-19860.16;5011312;28;20229;-57
2022/04/01 08:49:26;;;;;;;6.07;4.37;;;3.10;99.90;;;4.04;64.82;-19864.44;5011785;28;20622;-55
2022/04/01 08:51:54;;;;;;;8.07;5.60;;;3.10;99.90;;;3.93;65.94;-19860.69;5011398;28;20253;-54
2022/04/01 08:54:22;;;;;;;6.93;5.20;;;3.00;99.90;;;3.78;67.75;-19855.56;5011549;28;20604;-57
2022/04/01 08:56:50;;;;;;;7.27;4.87;;;2.90;99.90;;;3.82;68.93;-19856.94;5011707;28;20227;-56
2022/04/01 08:59:18;;;;;;;8.50;4.50;;;2.90;99.90;;;3.90;69.33;-19859.66;5011495;28;20223;-57
2022/04/01 09:01:47;;;;;;;6.67;5.00;;;2.90;99.90;;;3.75;68.24;-19854.53;5011980;28;20212;-55
2022/04/01 09:04:21;;;;;;;6.00;4.87;;;2.80;99.90;;;3.99;66.81;-19862.72;5012401;28;20304;-56
2022/04/01 09:06:50;;;;;;;7.83;4.70;;;2.90;99.90;;;4.01;67.14;-19863.25;5011723;28;20234;-54
2022/04/01 09:09:25;;;;;;;4.93;4.30;;;2.80;99.90;;;3.97;66.70;-19861.88;5011835;28;20226;-54
2022/04/01 09:12:14;;;;;;;5.37;4.20;;;2.90;99.90;;;3.98;65.29;-19862.41;5011814;28;20284;-56
2022/04/01 09:14:50;;;;;;;6.93;5.63;;;2.90;99.90;;;3.78;65.33;-19855.56;5010548;28;20514;-56
2022/04/01 09:17:19;;;;;;;5.57;4.47;;;2.80;99.90;;;3.93;64.19;-19860.69;5011874;28;20252;-54
2022/04/01 09:19:50;;;;;;;7.83;4.43;;;2.90;99.90;;;3.99;63.81;-19862.72;4992112;28;20222;-50
2022/04/01 09:22:22;;;;;;;6.03;4.27;;;3.00;99.90;;;4.30;62.98;-19873.34;4992341;28;20203;-54
2022/04/01 09:24:59;;;;;;;6.00;4.13;;;3.10;99.90;;;4.33;62.95;-19874.19;4991833;28;20231;-53
2022/04/01 09:27:46;;;;;;;6.10;4.50;;;3.30;99.90;;;4.44;64.02;-19877.94;5011625;28;20671;-53
2022/04/01 09:30:18;;;;;;;5.73;4.20;;;3.30;99.90;;;4.22;65.10;-19870.59;5011565;28;20241;-54
2022/04/01 09:32:51;;;;;;;5.53;4.60;;;3.20;99.90;;;4.17;66.56;-19868.72;5011390;28;20640;-50
2022/04/01 09:35:23;;;;;;;6.57;4.10;;;3.20;99.90;;;3.96;67.63;-19861.53;5011073;28;20221;-57
2022/04/01 09:37:54;;;;;;;7.13;4.77;;;3.10;99.90;;;3.58;69.99;-19848.72;5011609;28;20196;-55
2022/04/01 09:40:24;;;;;;;5.50;4.37;;;2.80;99.90;;;3.58;71.94;-19848.72;5012132;28;20280;-54
2022/04/01 09:42:53;;;;;;;6.03;4.27;;;2.70;99.90;;;3.51;74.38;-19846.31;5011308;28;20222;-58
2022/04/01 09:45:25;;;;;;;4.57;3.90;;;2.60;99.90;;;3.51;76.13;-19846.31;5011278;28;20268;-55
2022/04/01 09:48:03;;;;;;;4.73;4.00;;;2.60;99.90;;;3.38;76.06;-19841.88;5011513;28;20222;-54
2022/04/01 09:50:34;;;;;;;6.07;4.27;;;2.40;99.90;;;3.29;77.96;-19838.97;5011536;28;20250;-56
2022/04/01 09:53:12;;;;;;;4.93;3.90;;;2.40;99.90;;;3.32;77.25;-19839.81;5008582;28;20233;-55
2022/04/01 09:55:43;;;;;;;6.17;4.27;;;2.40;99.90;;;3.06;78.43;-19831.09;5011707;28;20195;-56
2022/04/01 09:58:12;;;;;;;5.67;3.90;;;2.20;99.90;;;3.09;78.54;-19832.13;5012064;28;20676;-55
2022/04/01 10:00:41;;;;;;;4.37;3.70;;;2.20;99.90;;;3.15;78.15;-19834.00;5011513;28;20316;-52
2022/04/01 10:03:14;;;;;;;5.40;3.90;;;2.20;99.90;;;3.23;78.66;-19836.75;5011561;28;20318;-61
2022/04/01 10:05:43;;;;;;;4.77;3.90;;;2.30;99.90;;;3.09;79.93;-19832.13;5011170;28;20222;-61
2022/04/01 10:08:13;;;;;;;9.10;6.87;;;2.10;99.90;;;3.25;80.46;-19837.59;5010962;28;20713;-62
2022/04/01 10:10:44;;;;;;;5.73;4.13;;;2.20;99.90;;;3.23;80.26;-19836.91;5011344;28;20222;-62
2022/04/01 10:13:19;;;;;;;4.80;4.00;;;2.20;99.90;;;3.38;80.52;-19841.88;5012026;28;20298;-61
2022/04/01 10:15:49;;;;;;;7.10;4.50;;;2.30;99.90;;;3.35;81.02;-19840.84;5011300;28;20228;-61
2022/04/01 10:18:46;;;;;;;5.63;4.30;;;2.40;99.90;;;3.58;79.47;-19848.72;5011371;28;20545;-56
2022/04/01 10:21:18;;;;;;;5.53;4.03;;;2.50;99.90;;;3.77;79.20;-19855.22;5011177;28;20252;-56
2022/04/01 10:23:57;;;;;;;7.07;4.40;;;2.60;99.90;;;4.04;77.28;-19864.28;5011127;28;20226;-55
2022/04/01 10:26:33;;;;;;;4.83;3.70;;;2.80;99.90;;;4.14;77.46;-19867.88;5011130;28;20253;-60
2022/04/01 10:29:03;;;;;;;6.77;4.30;;;2.90;99.90;;;4.10;75.27;-19866.31;5011270;28;20292;-59
2022/04/01 10:31:31;;;;;;;8.23;3.90;;;3.00;99.90;;;4.24;74.45;-19871.28;5011611;28;20210;-59
2022/04/01 10:34:22;;;;;;;5.10;3.57;;;3.10;99.90;;;4.36;73.59;-19875.22;5000121;28;20223;-58
2022/04/01 10:37:00;;;;;;;4.17;3.60;;;3.10;99.90;;;4.74;73.59;-19888.38;4991025;28;20383;-56
2022/04/01 10:39:29;;;;;;;4.70;3.50;;;3.40;99.90;;;4.83;71.74;-19891.44;4991774;28;20223;-57
2022/04/01 10:42:10;;;;;;;6.00;3.40;;;3.60;99.90;;;4.61;72.93;-19883.75;5007785;28;20273;-55
2022/04/01 10:44:52;;;;;;;3.83;3.40;;;3.50;99.90;;;5.06;72.32;-19898.97;5010742;28;20242;-58
2022/04/01 10:47:24;;;;;;;9.17;3.67;;;3.70;99.90;;;4.92;71.42;-19894.53;5011516;28;20323;-56
2022/04/01 10:52:39;;;;;;;5.00;3.70;;;3.80;99.90;;;5.58;70.21;-19916.91;5012811;28;20663;-58
2022/04/01 10:55:16;;;;;;;4.57;3.50;;;4.10;99.90;;;5.54;67.19;-19915.38;5014060;28;20294;-58